sensor_id;sensor_type;location;lat;lon;timestamp;pressure;altitude;pressure_sealevel;temperature;humidity
63907;BME280;50075;49.484;11.238;2024-01-15T00:02:07;96712.47;;;-0.44;100.00
63907;BME280;50075;49.484;11.238;2024-01-15T00:04:37;96714.97;;;-0.47;100.00
63907;BME280;50075;49.484;11.238;2024-01-15T00:07:03;96706.16;;;-0.61;100.00
63907;BME280;50075;49.484;11.238;2024-01-15T00:09:29;96693.50;;;-0.57;100.00
63907;BME280;50075;49.484;11.238;2024-01-15T00:11:54;96689.28;;;0.44;100.00
63907;BME280;50075;49.484;11.238;2024-01-15T00:14:19;96690.59;;;-0.29;100.00
63907;BME280;50075;49.484;11.238;2024-01-15T00:16:45;96690.28;;;0.00;100.00
63907;BME280;50075;49.484;11.238;2024-01-15T00:19:11;96685.81;;;0.41;100.00
63907;BME280;50075;49.484;11.238;2024-01-15T00:21:36;96682.13;;;-0.27;100.00
63907;BME280;50075;49.484;11.238;2024-01-15T00:24:01;96686.34;;;-0.30;100.00
63907;BME280;50075;49.484;11.238;2024-01-15T00:26:27;96701.03;;;0.31;100.00
63907;BME280;50075;49.484;11.238;2024-01-15T00:28:52;96683.09;;;-0.20;100.00
63907;BME280;50075;49.484;11.238;2024-01-15T00:31:17;96680.78;;;-0.07;100.00
63907;BME280;50075;49.484;11.238;2024-01-15T00:33:43;96676.53;;;0.47;100.00
63907;BME280;50075;49.484;11.238;2024-01-15T00:36:08;96674.28;;;-0.37;100.00
63907;BME280;50075;49.484;11.238;2024-01-15T00:38:34;96677.28;;;-0.57;100.00
63907;BME280;50075;49.484;11.238;2024-01-15T00:40:59;96667.41;;;0.08;100.00
63907;BME280;50075;49.484;11.238;2024-01-15T00:43:24;96663.97;;;-0.42;100.00
63907;BME280;50075;49.484;11.238;2024-01-15T00:45:50;96657.47;;;0.87;100.00
63907;BME280;50075;49.484;11.238;2024-01-15T00:48:15;96667.41;;;-0.40;100.00
63907;BME280;50075;49.484;11.238;2024-01-15T00:50:40;96667.63;;;-0.29;100.00
63907;BME280;50075;49.484;11.238;2024-01-15T00:53:06;96652.31;;;-0.26;100.00
63907;BME280;50075;49.484;11.238;2024-01-15T00:55:31;96657.44;;;-0.72;100.00
63907;BME280;50075;49.484;11.238;2024-01-15T00:57:57;96655.78;;;-1.12;100.00
63907;BME280;50075;49.484;11.238;2024-01-15T01:00:22;96659.19;;;-2.24;100.00
63907;BME280;50075;49.484;11.238;2024-01-15T01:02:47;96659.78;;;-1.63;100.00
63907;BME280;50075;49.484;11.238;2024-01-15T01:05:13;96647.38;;;-1.08;100.00
63907;BME280;50075;49.484;11.238;2024-01-15T01:07:38;96655.53;;;-0.83;100.00
63907;BME280;50075;49.484;11.238;2024-01-15T01:10:04;96652.78;;;-1.34;100.00
63907;BME280;50075;49.484;11.238;2024-01-15T01:12:30;96673.38;;;-1.63;100.00
63907;BME280;50075;49.484;11.238;2024-01-15T01:14:55;96690.06;;;-1.76;100.00
63907;BME280;50075;49.484;11.238;2024-01-15T01:17:21;96686.75;;;-1.35;100.00
63907;BME280;50075;49.484;11.238;2024-01-15T01:19:46;96688.38;;;-0.98;100.00
63907;BME280;50075;49.484;11.238;2024-01-15T01:22:11;96688.78;;;-0.78;100.00
63907;BME280;50075;49.484;11.238;2024-01-15T01:24:37;96687.41;;;-1.44;100.00
63907;BME280;50075;49.484;11.238;2024-01-15T01:27:02;96669.22;;;-1.59;100.00
63907;BME280;50075;49.484;11.238;2024-01-15T01:29:28;96665.72;;;-1.24;100.00
63907;BME280;50075;49.484;11.238;2024-01-15T01:31:53;96664.22;;;-0.74;100.00
63907;BME280;50075;49.484;11.238;2024-01-15T01:34:18;96660.91;;;-1.50;100.00
63907;BME280;50075;49.484;11.238;2024-01-15T01:36:44;96662.28;;;-1.65;100.00
63907;BME280;50075;49.484;11.238;2024-01-15T01:39:10;96670.97;;;-1.93;100.00
63907;BME280;50075;49.484;11.238;2024-01-15T01:41:35;96662.91;;;-2.09;100.00
63907;BME280;50075;49.484;11.238;2024-01-15T01:44:01;96666.44;;;-2.04;100.00
63907;BME280;50075;49.484;11.238;2024-01-15T01:46:27;96663.88;;;-1.70;100.00
63907;BME280;50075;49.484;11.238;2024-01-15T01:48:53;96654.97;;;-1.09;100.00
63907;BME280;50075;49.484;11.238;2024-01-15T01:51:21;96647.28;;;-0.69;100.00
63907;BME280;50075;49.484;11.238;2024-01-15T01:53:48;96652.84;;;-1.31;100.00
63907;BME280;50075;49.484;11.238;2024-01-15T01:56:14;96660.69;;;-1.60;100.00
63907;BME280;50075;49.484;11.238;2024-01-15T01:58:40;96642.34;;;-1.81;100.00
63907;BME280;50075;49.484;11.238;2024-01-15T02:01:06;96645.22;;;-1.67;100.00
63907;BME280;50075;49.484;11.238;2024-01-15T02:03:32;96634.31;;;-0.80;100.00
63907;BME280;50075;49.484;11.238;2024-01-15T02:05:59;96639.84;;;-1.41;100.00
63907;BME280;50075;49.484;11.238;2024-01-15T02:08:25;96647.28;;;-1.52;100.00
63907;BME280;50075;49.484;11.238;2024-01-15T02:10:50;96647.63;;;-0.50;100.00
63907;BME280;50075;49.484;11.238;2024-01-15T02:13:17;96654.28;;;-1.02;100.00
63907;BME280;50075;49.484;11.238;2024-01-15T02:15:43;96662.09;;;-1.36;100.00
63907;BME280;50075;49.484;11.238;2024-01-15T02:18:08;96659.75;;;-1.26;100.00
63907;BME280;50075;49.484;11.238;2024-01-15T02:20:33;96661.38;;;-0.44;100.00
63907;BME280;50075;49.484;11.238;2024-01-15T02:23:09;96652.31;;;-0.28;100.00
63907;BME280;50075;49.484;11.238;2024-01-15T02:25:37;96661.13;;;-0.58;100.00
63907;BME280;50075;49.484;11.238;2024-01-15T02:28:03;96650.28;;;-0.90;100.00
63907;BME280;50075;49.484;11.238;2024-01-15T02:30:30;96653.19;;;-1.13;100.00
63907;BME280;50075;49.484;11.238;2024-01-15T02:32:56;96646.56;;;-1.05;100.00
63907;BME280;50075;49.484;11.238;2024-01-15T02:35:21;96651.19;;;-1.28;100.00
63907;BME280;50075;49.484;11.238;2024-01-15T02:37:47;96647.72;;;-0.90;100.00
63907;BME280;50075;49.484;11.238;2024-01-15T02:40:12;96641.28;;;-1.14;100.00
63907;BME280;50075;49.484;11.238;2024-01-15T02:42:37;96651.34;;;-0.79;100.00
63907;BME280;50075;49.484;11.238;2024-01-15T02:45:03;96645.16;;;-0.92;100.00
63907;BME280;50075;49.484;11.238;2024-01-15T02:47:29;96640.22;;;-0.83;100.00
63907;BME280;50075;49.484;11.238;2024-01-15T02:49:54;96637.81;;;-1.18;100.00
63907;BME280;50075;49.484;11.238;2024-01-15T02:52:20;96641.47;;;-1.45;100.00
63907;BME280;50075;49.484;11.238;2024-01-15T02:54:45;96644.16;;;-1.39;100.00
63907;BME280;50075;49.484;11.238;2024-01-15T02:57:10;96644.69;;;-0.71;100.00
63907;BME280;50075;49.484;11.238;2024-01-15T02:59:36;96650.69;;;-0.70;100.00
63907;BME280;50075;49.484;11.238;2024-01-15T03:02:01;96654.09;;;-0.68;100.00
63907;BME280;50075;49.484;11.238;2024-01-15T03:04:26;96659.53;;;-0.53;100.00
63907;BME280;50075;49.484;11.238;2024-01-15T03:06:52;96667.25;;;-0.49;100.00
63907;BME280;50075;49.484;11.238;2024-01-15T03:09:17;96650.97;;;-0.53;100.00
63907;BME280;50075;49.484;11.238;2024-01-15T03:11:42;96651.66;;;-0.16;100.00
63907;BME280;50075;49.484;11.238;2024-01-15T03:14:08;96646.25;;;0.18;100.00
63907;BME280;50075;49.484;11.238;2024-01-15T03:16:33;96648.78;;;-0.34;100.00
63907;BME280;50075;49.484;11.238;2024-01-15T03:18:58;96634.66;;;0.41;100.00
63907;BME280;50075;49.484;11.238;2024-01-15T03:21:23;96630.16;;;0.25;100.00
63907;BME280;50075;49.484;11.238;2024-01-15T03:23:49;96631.88;;;-0.26;100.00
63907;BME280;50075;49.484;11.238;2024-01-15T03:26:14;96626.75;;;-0.26;100.00
63907;BME280;50075;49.484;11.238;2024-01-15T03:28:39;96622.06;;;-0.01;100.00
63907;BME280;50075;49.484;11.238;2024-01-15T03:31:05;96619.75;;;0.72;100.00
63907;BME280;50075;49.484;11.238;2024-01-15T03:33:30;96621.25;;;0.57;100.00
63907;BME280;50075;49.484;11.238;2024-01-15T03:35:55;96628.25;;;0.12;100.00
63907;BME280;50075;49.484;11.238;2024-01-15T03:38:22;96618.19;;;0.23;100.00
63907;BME280;50075;49.484;11.238;2024-01-15T03:40:48;96611.75;;;1.16;100.00
63907;BME280;50075;49.484;11.238;2024-01-15T03:43:13;96612.28;;;0.27;100.00
63907;BME280;50075;49.484;11.238;2024-01-15T03:45:39;96613.97;;;0.27;100.00
63907;BME280;50075;49.484;11.238;2024-01-15T03:48:04;96613.19;;;0.31;100.00
63907;BME280;50075;49.484;11.238;2024-01-15T03:50:29;96605.63;;;1.02;100.00
63907;BME280;50075;49.484;11.238;2024-01-15T03:52:55;96612.94;;;0.15;100.00
63907;BME280;50075;49.484;11.238;2024-01-15T03:55:20;96605.31;;;0.17;100.00
63907;BME280;50075;49.484;11.238;2024-01-15T03:57:45;96599.53;;;0.30;100.00
63907;BME280;50075;49.484;11.238;2024-01-15T04:00:11;96593.00;;;1.17;100.00
63907;BME280;50075;49.484;11.238;2024-01-15T04:02:37;96608.03;;;0.28;100.00
63907;BME280;50075;49.484;11.238;2024-01-15T04:05:02;96590.00;;;0.18;100.00
63907;BME280;50075;49.484;11.238;2024-01-15T04:07:28;96600.81;;;0.00;100.00
63907;BME280;50075;49.484;11.238;2024-01-15T04:09:53;96599.25;;;0.70;100.00
63907;BME280;50075;49.484;11.238;2024-01-15T04:12:18;96582.66;;;1.11;100.00
63907;BME280;50075;49.484;11.238;2024-01-15T04:14:44;96591.22;;;0.44;100.00
63907;BME280;50075;49.484;11.238;2024-01-15T04:17:09;96591.06;;;0.34;100.00
63907;BME280;50075;49.484;11.238;2024-01-15T04:19:34;96589.34;;;0.33;100.00
63907;BME280;50075;49.484;11.238;2024-01-15T04:22:00;96589.31;;;0.32;100.00
63907;BME280;50075;49.484;11.238;2024-01-15T04:24:25;96587.25;;;0.06;100.00
63907;BME280;50075;49.484;11.238;2024-01-15T04:26:51;96588.03;;;0.02;100.00
63907;BME280;50075;49.484;11.238;2024-01-15T04:29:16;96592.72;;;-0.25;100.00
63907;BME280;50075;49.484;11.238;2024-01-15T04:31:41;96588.59;;;-0.18;100.00
63907;BME280;50075;49.484;11.238;2024-01-15T04:34:07;96580.75;;;-0.29;100.00
63907;BME280;50075;49.484;11.238;2024-01-15T04:36:38;96584.25;;;-0.22;100.00
63907;BME280;50075;49.484;11.238;2024-01-15T04:39:04;96578.91;;;0.81;100.00
63907;BME280;50075;49.484;11.238;2024-01-15T04:41:29;96582.34;;;0.20;100.00
63907;BME280;50075;49.484;11.238;2024-01-15T04:43:55;96581.44;;;0.80;100.00
63907;BME280;50075;49.484;11.238;2024-01-15T04:46:20;96577.63;;;1.17;100.00
63907;BME280;50075;49.484;11.238;2024-01-15T04:48:46;96579.19;;;0.36;100.00
63907;BME280;50075;49.484;11.238;2024-01-15T04:51:12;96576.84;;;2.23;100.00
63907;BME280;50075;49.484;11.238;2024-01-15T04:53:37;96576.66;;;1.08;100.00
63907;BME280;50075;49.484;11.238;2024-01-15T04:56:02;96574.50;;;1.48;100.00
63907;BME280;50075;49.484;11.238;2024-01-15T04:58:28;96574.66;;;1.62;100.00
63907;BME280;50075;49.484;11.238;2024-01-15T05:00:54;96571.13;;;1.51;100.00
63907;BME280;50075;49.484;11.238;2024-01-15T05:03:19;96577.22;;;0.82;100.00
63907;BME280;50075;49.484;11.238;2024-01-15T05:05:45;96563.59;;;0.84;100.00
63907;BME280;50075;49.484;11.238;2024-01-15T05:08:10;96560.50;;;2.10;100.00
63907;BME280;50075;49.484;11.238;2024-01-15T05:10:36;96564.66;;;1.02;100.00
63907;BME280;50075;49.484;11.238;2024-01-15T05:13:02;96562.56;;;0.68;100.00
63907;BME280;50075;49.484;11.238;2024-01-15T05:15:27;96558.69;;;0.35;100.00
63907;BME280;50075;49.484;11.238;2024-01-15T05:17:52;96555.25;;;0.34;100.00
63907;BME280;50075;49.484;11.238;2024-01-15T05:20:18;96544.38;;;1.24;100.00
63907;BME280;50075;49.484;11.238;2024-01-15T05:22:43;96559.06;;;0.64;100.00
63907;BME280;50075;49.484;11.238;2024-01-15T05:25:08;96550.63;;;2.75;100.00
63907;BME280;50075;49.484;11.238;2024-01-15T05:27:34;96555.28;;;1.99;100.00
63907;BME280;50075;49.484;11.238;2024-01-15T05:29:59;96550.75;;;1.63;100.00
63907;BME280;50075;49.484;11.238;2024-01-15T05:32:24;96549.50;;;2.28;100.00
63907;BME280;50075;49.484;11.238;2024-01-15T05:34:50;96555.44;;;2.16;100.00
63907;BME280;50075;49.484;11.238;2024-01-15T05:37:15;96548.84;;;2.60;100.00
63907;BME280;50075;49.484;11.238;2024-01-15T05:39:40;96549.63;;;2.48;100.00
63907;BME280;50075;49.484;11.238;2024-01-15T05:42:06;96547.84;;;2.36;100.00
63907;BME280;50075;49.484;11.238;2024-01-15T05:44:31;96539.66;;;4.43;100.00
63907;BME280;50075;49.484;11.238;2024-01-15T05:46:56;96543.06;;;3.22;100.00
63907;BME280;50075;49.484;11.238;2024-01-15T05:49:22;96549.97;;;4.46;100.00
63907;BME280;50075;49.484;11.238;2024-01-15T05:51:47;96549.91;;;3.18;100.00
63907;BME280;50075;49.484;11.238;2024-01-15T05:54:12;96546.41;;;2.97;100.00
63907;BME280;50075;49.484;11.238;2024-01-15T05:56:38;96543.84;;;2.93;100.00
63907;BME280;50075;49.484;11.238;2024-01-15T05:59:03;96535.41;;;3.39;100.00
63907;BME280;50075;49.484;11.238;2024-01-15T06:01:28;96539.69;;;3.40;100.00
63907;BME280;50075;49.484;11.238;2024-01-15T06:03:54;96547.09;;;2.54;100.00
63907;BME280;50075;49.484;11.238;2024-01-15T06:06:19;96540.41;;;2.92;100.00
63907;BME280;50075;49.484;11.238;2024-01-15T06:08:45;96545.94;;;2.05;100.00
63907;BME280;50075;49.484;11.238;2024-01-15T06:11:10;96538.81;;;1.65;100.00
63907;BME280;50075;49.484;11.238;2024-01-15T06:13:35;96544.50;;;2.48;100.00
63907;BME280;50075;49.484;11.238;2024-01-15T06:16:01;96543.44;;;1.15;100.00
63907;BME280;50075;49.484;11.238;2024-01-15T06:18:27;96543.59;;;2.41;100.00
63907;BME280;50075;49.484;11.238;2024-01-15T06:20:53;96545.09;;;2.06;100.00
63907;BME280;50075;49.484;11.238;2024-01-15T06:23:18;96545.09;;;2.10;100.00
63907;BME280;50075;49.484;11.238;2024-01-15T06:25:43;96554.81;;;2.56;100.00
63907;BME280;50075;49.484;11.238;2024-01-15T06:28:09;96551.72;;;3.69;100.00
63907;BME280;50075;49.484;11.238;2024-01-15T06:30:34;96543.13;;;3.90;100.00
63907;BME280;50075;49.484;11.238;2024-01-15T06:33:00;96550.38;;;2.33;100.00
63907;BME280;50075;49.484;11.238;2024-01-15T06:35:25;96551.19;;;2.21;100.00
63907;BME280;50075;49.484;11.238;2024-01-15T06:37:51;96550.81;;;1.74;100.00
63907;BME280;50075;49.484;11.238;2024-01-15T06:40:16;96540.09;;;2.27;100.00
63907;BME280;50075;49.484;11.238;2024-01-15T06:42:41;96540.75;;;1.98;100.00
63907;BME280;50075;49.484;11.238;2024-01-15T06:45:07;96553.00;;;2.42;100.00
63907;BME280;50075;49.484;11.238;2024-01-15T06:47:33;96552.13;;;2.36;100.00
63907;BME280;50075;49.484;11.238;2024-01-15T06:49:58;96540.56;;;3.55;100.00
63907;BME280;50075;49.484;11.238;2024-01-15T06:52:24;96542.25;;;4.26;100.00
63907;BME280;50075;49.484;11.238;2024-01-15T06:54:49;96538.66;;;4.88;100.00
63907;BME280;50075;49.484;11.238;2024-01-15T06:57:14;96533.53;;;4.75;100.00
63907;BME280;50075;49.484;11.238;2024-01-15T06:59:39;96542.47;;;1.95;100.00
63907;BME280;50075;49.484;11.238;2024-01-15T07:02:06;96546.97;;;2.32;100.00
63907;BME280;50075;49.484;11.238;2024-01-15T07:04:31;96551.69;;;1.75;100.00
63907;BME280;50075;49.484;11.238;2024-01-15T07:06:56;96549.91;;;3.15;100.00
63907;BME280;50075;49.484;11.238;2024-01-15T07:09:22;96549.66;;;2.53;100.00
63907;BME280;50075;49.484;11.238;2024-01-15T07:11:47;96547.34;;;3.26;100.00
63907;BME280;50075;49.484;11.238;2024-01-15T07:14:13;96540.19;;;2.41;100.00
63907;BME280;50075;49.484;11.238;2024-01-15T07:16:39;96548.63;;;2.24;100.00
63907;BME280;50075;49.484;11.238;2024-01-15T07:19:04;96556.00;;;3.89;100.00
63907;BME280;50075;49.484;11.238;2024-01-15T07:21:30;96553.31;;;3.11;100.00
63907;BME280;50075;49.484;11.238;2024-01-15T07:23:55;96544.53;;;2.59;100.00
63907;BME280;50075;49.484;11.238;2024-01-15T07:26:20;96551.56;;;3.01;100.00
63907;BME280;50075;49.484;11.238;2024-01-15T07:28:46;96553.41;;;4.39;100.00
63907;BME280;50075;49.484;11.238;2024-01-15T07:31:12;96562.28;;;2.18;100.00
63907;BME280;50075;49.484;11.238;2024-01-15T07:33:37;96562.75;;;3.10;100.00
63907;BME280;50075;49.484;11.238;2024-01-15T07:36:02;96558.53;;;1.74;100.00
63907;BME280;50075;49.484;11.238;2024-01-15T07:38:28;96561.44;;;1.23;100.00
63907;BME280;50075;49.484;11.238;2024-01-15T07:40:53;96568.66;;;0.81;100.00
63907;BME280;50075;49.484;11.238;2024-01-15T07:43:19;96565.31;;;0.85;100.00
63907;BME280;50075;49.484;11.238;2024-01-15T07:45:44;96568.56;;;0.72;100.00
63907;BME280;50075;49.484;11.238;2024-01-15T07:48:10;96561.97;;;6.98;100.00
63907;BME280;50075;49.484;11.238;2024-01-15T07:50:36;96558.31;;;8.81;100.00
63907;BME280;50075;49.484;11.238;2024-01-15T07:53:01;96566.19;;;3.17;100.00
63907;BME280;50075;49.484;11.238;2024-01-15T07:55:26;96565.78;;;1.29;100.00
63907;BME280;50075;49.484;11.238;2024-01-15T07:57:52;96561.44;;;1.23;100.00
63907;BME280;50075;49.484;11.238;2024-01-15T08:00:18;96575.63;;;0.90;100.00
63907;BME280;50075;49.484;11.238;2024-01-15T08:02:44;96566.91;;;0.77;100.00
63907;BME280;50075;49.484;11.238;2024-01-15T08:05:09;96569.34;;;0.66;100.00
63907;BME280;50075;49.484;11.238;2024-01-15T08:07:34;96565.41;;;0.95;100.00
63907;BME280;50075;49.484;11.238;2024-01-15T08:10:00;96562.44;;;0.59;100.00
63907;BME280;50075;49.484;11.238;2024-01-15T08:12:25;96578.13;;;0.22;100.00
63907;BME280;50075;49.484;11.238;2024-01-15T08:14:50;96577.44;;;0.34;100.00
63907;BME280;50075;49.484;11.238;2024-01-15T08:17:16;96570.94;;;0.58;100.00
63907;BME280;50075;49.484;11.238;2024-01-15T08:19:42;96571.97;;;0.71;100.00
63907;BME280;50075;49.484;11.238;2024-01-15T08:22:07;96568.50;;;0.66;100.00
63907;BME280;50075;49.484;11.238;2024-01-15T08:24:33;96573.38;;;0.50;100.00
63907;BME280;50075;49.484;11.238;2024-01-15T08:26:58;96574.81;;;0.31;100.00
63907;BME280;50075;49.484;11.238;2024-01-15T08:29:24;96564.81;;;0.46;100.00
63907;BME280;50075;49.484;11.238;2024-01-15T08:31:50;96574.38;;;0.60;100.00
63907;BME280;50075;49.484;11.238;2024-01-15T08:34:15;96569.91;;;2.09;100.00
63907;BME280;50075;49.484;11.238;2024-01-15T08:36:41;96564.28;;;2.69;100.00
63907;BME280;50075;49.484;11.238;2024-01-15T08:39:06;96561.59;;;2.44;100.00
63907;BME280;50075;49.484;11.238;2024-01-15T08:41:33;96562.84;;;3.82;100.00
63907;BME280;50075;49.484;11.238;2024-01-15T08:43:58;96557.72;;;3.82;100.00
63907;BME280;50075;49.484;11.238;2024-01-15T08:46:23;96557.66;;;3.35;100.00
63907;BME280;50075;49.484;11.238;2024-01-15T08:48:49;96557.66;;;3.46;100.00
63907;BME280;50075;49.484;11.238;2024-01-15T08:51:15;96561.91;;;3.19;100.00
63907;BME280;50075;49.484;11.238;2024-01-15T08:53:40;96557.69;;;4.45;100.00
63907;BME280;50075;49.484;11.238;2024-01-15T08:56:05;96562.84;;;3.73;100.00
63907;BME280;50075;49.484;11.238;2024-01-15T08:58:31;96555.59;;;5.36;100.00
63907;BME280;50075;49.484;11.238;2024-01-15T09:00:56;96559.66;;;5.77;100.00
63907;BME280;50075;49.484;11.238;2024-01-15T09:03:21;96567.09;;;4.61;100.00
63907;BME280;50075;49.484;11.238;2024-01-15T09:05:47;96568.66;;;5.04;100.00
63907;BME280;50075;49.484;11.238;2024-01-15T09:08:15;96567.13;;;3.57;100.00
63907;BME280;50075;49.484;11.238;2024-01-15T09:10:40;96572.03;;;2.85;100.00
63907;BME280;50075;49.484;11.238;2024-01-15T09:13:05;96561.13;;;3.87;100.00
63907;BME280;50075;49.484;11.238;2024-01-15T09:15:31;96551.09;;;5.72;100.00
63907;BME280;50075;49.484;11.238;2024-01-15T09:17:57;96556.53;;;5.22;100.00
63907;BME280;50075;49.484;11.238;2024-01-15T09:20:24;96555.66;;;5.31;100.00
63907;BME280;50075;49.484;11.238;2024-01-15T09:22:51;96556.34;;;5.56;100.00
63907;BME280;50075;49.484;11.238;2024-01-15T09:25:16;96561.97;;;3.43;100.00
63907;BME280;50075;49.484;11.238;2024-01-15T09:27:42;96560.91;;;5.04;100.00
63907;BME280;50075;49.484;11.238;2024-01-15T09:30:07;96568.00;;;3.74;100.00
63907;BME280;50075;49.484;11.238;2024-01-15T09:32:33;96563.72;;;3.92;100.00
63907;BME280;50075;49.484;11.238;2024-01-15T09:34:59;96569.66;;;3.36;100.00
63907;BME280;50075;49.484;11.238;2024-01-15T09:37:24;96561.00;;;3.05;100.00
63907;BME280;50075;49.484;11.238;2024-01-15T09:39:49;96569.72;;;3.78;100.00
63907;BME280;50075;49.484;11.238;2024-01-15T09:42:15;96575.38;;;2.68;100.00
63907;BME280;50075;49.484;11.238;2024-01-15T09:44:41;96577.31;;;3.13;100.00
63907;BME280;50075;49.484;11.238;2024-01-15T09:47:07;96576.34;;;2.86;100.00
63907;BME280;50075;49.484;11.238;2024-01-15T09:49:33;96567.81;;;2.95;100.00
63907;BME280;50075;49.484;11.238;2024-01-15T09:51:58;96575.50;;;2.89;100.00
63907;BME280;50075;49.484;11.238;2024-01-15T09:54:24;96565.38;;;3.48;100.00
63907;BME280;50075;49.484;11.238;2024-01-15T09:56:50;96567.72;;;5.23;100.00
63907;BME280;50075;49.484;11.238;2024-01-15T09:59:16;96562.66;;;5.01;100.00
63907;BME280;50075;49.484;11.238;2024-01-15T10:01:43;96575.88;;;1.13;100.00
63907;BME280;50075;49.484;11.238;2024-01-15T10:04:13;96576.59;;;-0.22;100.00
63907;BME280;50075;49.484;11.238;2024-01-15T10:06:39;96567.28;;;-0.68;100.00
63907;BME280;50075;49.484;11.238;2024-01-15T10:09:06;96562.97;;;-0.71;100.00
63907;BME280;50075;49.484;11.238;2024-01-15T10:11:33;96558.72;;;-0.72;100.00
63907;BME280;50075;49.484;11.238;2024-01-15T10:13:58;96562.13;;;-0.73;100.00
63907;BME280;50075;49.484;11.238;2024-01-15T10:16:24;96562.09;;;-0.74;100.00
63907;BME280;50075;49.484;11.238;2024-01-15T10:18:49;96555.25;;;-0.74;100.00
63907;BME280;50075;49.484;11.238;2024-01-15T10:21:15;96555.28;;;-0.72;100.00
63907;BME280;50075;49.484;11.238;2024-01-15T10:23:41;96549.38;;;-0.70;100.00
63907;BME280;50075;49.484;11.238;2024-01-15T10:26:06;96547.56;;;-0.77;100.00
63907;BME280;50075;49.484;11.238;2024-01-15T10:28:31;96550.84;;;-0.84;100.00
63907;BME280;50075;49.484;11.238;2024-01-15T10:30:58;96546.75;;;-0.74;100.00
63907;BME280;50075;49.484;11.238;2024-01-15T10:33:27;96542.88;;;-0.52;100.00
63907;BME280;50075;49.484;11.238;2024-01-15T10:35:58;96538.81;;;-0.41;100.00
63907;BME280;50075;49.484;11.238;2024-01-15T10:38:24;96534.00;;;-0.23;100.00
63907;BME280;50075;49.484;11.238;2024-01-15T10:40:53;96535.84;;;-0.13;100.00
63907;BME280;50075;49.484;11.238;2024-01-15T10:43:19;96526.03;;;0.14;100.00
63907;BME280;50075;49.484;11.238;2024-01-15T10:45:51;96521.91;;;0.27;100.00
63907;BME280;50075;49.484;11.238;2024-01-15T10:48:17;96517.03;;;0.44;100.00
63907;BME280;50075;49.484;11.238;2024-01-15T10:50:44;96510.56;;;0.72;100.00
63907;BME280;50075;49.484;11.238;2024-01-15T10:53:11;96508.63;;;1.33;100.00
63907;BME280;50075;49.484;11.238;2024-01-15T10:55:37;96503.75;;;1.64;100.00
63907;BME280;50075;49.484;11.238;2024-01-15T10:58:03;96509.16;;;1.97;100.00
63907;BME280;50075;49.484;11.238;2024-01-15T11:00:29;96505.56;;;1.75;100.00
63907;BME280;50075;49.484;11.238;2024-01-15T11:02:55;96502.78;;;1.50;100.00
63907;BME280;50075;49.484;11.238;2024-01-15T11:05:22;96509.25;;;2.20;100.00
63907;BME280;50075;49.484;11.238;2024-01-15T11:07:49;96508.56;;;2.43;100.00
63907;BME280;50075;49.484;11.238;2024-01-15T11:10:41;96500.44;;;1.79;100.00
63907;BME280;50075;49.484;11.238;2024-01-15T11:13:13;96498.72;;;1.74;100.00
63907;BME280;50075;49.484;11.238;2024-01-15T11:18:20;96489.94;;;4.17;100.00
63907;BME280;50075;49.484;11.238;2024-01-15T11:23:56;96491.56;;;2.80;100.00
63907;BME280;50075;49.484;11.238;2024-01-15T11:26:36;96502.47;;;2.30;100.00
63907;BME280;50075;49.484;11.238;2024-01-15T11:29:10;96484.59;;;2.44;100.00
63907;BME280;50075;49.484;11.238;2024-01-15T11:34:05;96490.84;;;4.01;100.00
63907;BME280;50075;49.484;11.238;2024-01-15T11:39:39;96470.16;;;2.67;100.00
63907;BME280;50075;49.484;11.238;2024-01-15T11:42:04;96476.91;;;2.44;100.00
63907;BME280;50075;49.484;11.238;2024-01-15T11:44:30;96476.25;;;3.20;100.00
63907;BME280;50075;49.484;11.238;2024-01-15T11:52:11;96478.88;;;3.31;100.00
63907;BME280;50075;49.484;11.238;2024-01-15T11:54:46;96480.56;;;3.28;100.00
63907;BME280;50075;49.484;11.238;2024-01-15T11:57:24;96473.72;;;3.64;100.00
63907;BME280;50075;49.484;11.238;2024-01-15T11:59:51;96470.94;;;4.56;100.00
63907;BME280;50075;49.484;11.238;2024-01-15T12:02:16;96470.28;;;3.60;100.00
63907;BME280;50075;49.484;11.238;2024-01-15T12:04:42;96464.28;;;3.54;100.00
63907;BME280;50075;49.484;11.238;2024-01-15T12:07:07;96467.66;;;3.03;100.00
63907;BME280;50075;49.484;11.238;2024-01-15T12:09:33;96466.00;;;3.36;100.00
63907;BME280;50075;49.484;11.238;2024-01-15T12:12:03;96461.69;;;3.91;100.00
63907;BME280;50075;49.484;11.238;2024-01-15T12:14:32;96461.66;;;4.07;100.00
63907;BME280;50075;49.484;11.238;2024-01-15T12:16:57;96474.50;;;2.97;100.00
63907;BME280;50075;49.484;11.238;2024-01-15T12:19:23;96481.31;;;2.80;100.00
63907;BME280;50075;49.484;11.238;2024-01-15T12:21:52;96469.16;;;2.40;100.00
63907;BME280;50075;49.484;11.238;2024-01-15T12:24:18;96470.94;;;2.50;100.00
63907;BME280;50075;49.484;11.238;2024-01-15T12:26:44;96467.28;;;2.03;100.00
63907;BME280;50075;49.484;11.238;2024-01-15T12:29:10;96466.28;;;1.84;100.00
63907;BME280;50075;49.484;11.238;2024-01-15T12:31:36;96474.34;;;2.47;100.00
63907;BME280;50075;49.484;11.238;2024-01-15T12:34:01;96468.38;;;2.53;100.00
63907;BME280;50075;49.484;11.238;2024-01-15T12:36:27;96471.16;;;3.41;100.00
63907;BME280;50075;49.484;11.238;2024-01-15T12:38:59;96474.50;;;2.96;100.00
63907;BME280;50075;49.484;11.238;2024-01-15T12:41:24;96474.56;;;3.75;100.00
63907;BME280;50075;49.484;11.238;2024-01-15T12:43:50;96482.22;;;3.02;100.00
63907;BME280;50075;49.484;11.238;2024-01-15T12:46:15;96474.34;;;4.63;100.00
63907;BME280;50075;49.484;11.238;2024-01-15T12:48:40;96478.78;;;2.95;100.00
63907;BME280;50075;49.484;11.238;2024-01-15T12:51:06;96470.91;;;2.44;100.00
63907;BME280;50075;49.484;11.238;2024-01-15T12:53:31;96471.16;;;3.30;100.00
63907;BME280;50075;49.484;11.238;2024-01-15T12:55:57;96463.00;;;5.01;100.00
63907;BME280;50075;49.484;11.238;2024-01-15T12:58:22;96456.56;;;3.86;100.00